createdAt,value
2018-05-06T00:02:09.928Z,54.61
2018-05-06T00:04:37.332Z,54.70
2018-05-06T00:07:04.748Z,54.82
2018-05-06T00:09:32.157Z,54.89
2018-05-06T00:11:59.565Z,54.99
2018-05-06T00:14:26.972Z,55.07
2018-05-06T00:16:54.405Z,55.16
2018-05-06T00:19:21.804Z,55.25
2018-05-06T00:21:49.224Z,55.46
2018-05-06T00:24:16.635Z,55.38
2018-05-06T00:26:44.045Z,55.55
2018-05-06T00:29:11.468Z,55.73
2018-05-06T00:31:38.884Z,55.67
2018-05-06T00:34:06.300Z,55.76
2018-05-06T00:36:33.728Z,55.76
2018-05-06T00:39:01.141Z,55.96
2018-05-06T00:41:28.556Z,56.01
2018-05-06T00:43:56.013Z,56.00
2018-05-06T00:46:23.495Z,56.11
2018-05-06T00:48:50.828Z,56.22
2018-05-06T00:51:18.246Z,56.24
2018-05-06T00:53:45.651Z,56.38
2018-05-06T00:56:13.057Z,56.38
2018-05-06T00:58:40.469Z,56.48
2018-05-06T01:01:07.882Z,56.44
2018-05-06T01:03:35.296Z,56.52
2018-05-06T01:06:02.704Z,56.77
2018-05-06T01:08:30.127Z,56.88
2018-05-06T01:10:57.536Z,57.11
2018-05-06T01:13:24.956Z,57.26
2018-05-06T01:15:52.385Z,57.35
2018-05-06T01:18:19.809Z,57.31
2018-05-06T01:20:47.208Z,57.38
2018-05-06T01:23:14.632Z,57.50
2018-05-06T01:25:42.043Z,57.57
2018-05-06T01:28:09.457Z,57.53
2018-05-06T01:30:36.863Z,57.72
2018-05-06T01:33:04.280Z,57.69
2018-05-06T01:35:31.684Z,57.83
2018-05-06T01:37:59.132Z,57.77
2018-05-06T01:40:26.533Z,58.00
2018-05-06T01:42:53.945Z,58.12
2018-05-06T01:45:21.357Z,58.17
2018-05-06T01:47:48.769Z,58.07
2018-05-06T01:50:16.176Z,58.07
2018-05-06T01:52:43.596Z,58.05
2018-05-06T01:55:11.012Z,58.07
2018-05-06T01:57:38.429Z,58.13
2018-05-06T02:00:05.837Z,58.22
2018-05-06T02:02:33.253Z,58.12
2018-05-06T02:05:00.664Z,58.25
2018-05-06T02:07:28.069Z,58.40
2018-05-06T02:09:55.477Z,58.39
2018-05-06T02:12:22.922Z,58.50
2018-05-06T02:14:50.323Z,58.81
2018-05-06T02:17:17.724Z,58.92
2018-05-06T02:19:45.144Z,58.89
2018-05-06T02:22:12.547Z,59.11
2018-05-06T02:24:39.960Z,58.82
2018-05-06T02:27:07.368Z,58.94
2018-05-06T02:29:34.792Z,59.11
2018-05-06T02:32:02.205Z,59.05
2018-05-06T02:34:29.617Z,59.20
2018-05-06T02:36:57.025Z,59.21
2018-05-06T02:39:24.439Z,59.41
2018-05-06T02:41:51.848Z,59.55
2018-05-06T02:44:19.271Z,59.70
2018-05-06T02:46:46.667Z,59.79
2018-05-06T02:49:14.076Z,60.02
2018-05-06T02:51:41.484Z,59.97
2018-05-06T02:54:08.908Z,59.96
2018-05-06T02:56:36.312Z,59.97
2018-05-06T02:59:03.724Z,60.06
2018-05-06T03:01:31.133Z,60.10
2018-05-06T03:03:58.546Z,60.06
2018-05-06T03:06:25.952Z,60.27
2018-05-06T03:08:53.370Z,60.12
2018-05-06T03:11:20.775Z,60.06
2018-05-06T03:13:48.188Z,60.05
2018-05-06T03:16:15.691Z,60.33
2018-05-06T03:18:43.175Z,60.42
2018-05-06T03:21:10.507Z,60.55
2018-05-06T03:23:37.924Z,60.55
2018-05-06T03:26:05.328Z,60.79
2018-05-06T03:28:32.748Z,61.04
2018-05-06T03:31:00.147Z,60.95
2018-05-06T03:33:27.567Z,61.16
2018-05-06T03:35:54.977Z,60.97
2018-05-06T03:38:22.388Z,60.76
2018-05-06T03:40:49.799Z,60.99
2018-05-06T03:43:17.208Z,61.07
2018-05-06T03:45:44.649Z,60.97
2018-05-06T03:48:12.088Z,60.96
2018-05-06T03:50:39.489Z,60.97
2018-05-06T03:53:06.893Z,61.12
2018-05-06T03:55:34.336Z,60.86
2018-05-06T03:58:13.656Z,60.90
2018-05-06T04:00:42.656Z,61.18
2018-05-06T04:03:10.065Z,61.29
2018-05-06T04:05:37.484Z,61.56
2018-05-06T04:08:04.886Z,61.61
2018-05-06T04:10:33.125Z,61.72
2018-05-06T04:13:00.522Z,61.73
2018-05-06T04:15:27.945Z,61.86
2018-05-06T04:17:55.348Z,62.09
2018-05-06T04:20:22.764Z,62.35
2018-05-06T04:22:50.209Z,62.80
2018-05-06T04:25:17.616Z,62.83
2018-05-06T04:27:45.021Z,63.10
2018-05-06T04:30:12.437Z,63.22
2018-05-06T04:32:39.848Z,63.31
2018-05-06T04:35:07.272Z,63.45
2018-05-06T04:37:34.674Z,63.41
2018-05-06T04:40:02.088Z,63.65
2018-05-06T04:42:29.515Z,63.68
2018-05-06T04:44:56.924Z,63.82
2018-05-06T04:47:24.332Z,63.69
2018-05-06T04:49:51.740Z,63.62
2018-05-06T04:52:19.148Z,63.54
2018-05-06T04:54:46.582Z,63.40
2018-05-06T04:57:13.979Z,63.42
2018-05-06T04:59:41.391Z,63.18
2018-05-06T05:02:08.796Z,63.01
2018-05-06T05:04:36.208Z,62.83
2018-05-06T05:07:03.616Z,62.59
2018-05-06T05:09:31.063Z,62.12
2018-05-06T05:11:58.443Z,62.17
2018-05-06T05:14:25.859Z,61.54
2018-05-06T05:16:53.264Z,60.67
2018-05-06T05:19:20.691Z,60.69
2018-05-06T05:21:48.095Z,60.25
2018-05-06T05:24:15.521Z,59.03
2018-05-06T05:26:42.927Z,58.58
2018-05-06T05:29:10.324Z,58.10
2018-05-06T05:31:37.735Z,56.76
2018-05-06T05:34:05.142Z,57.36
2018-05-06T05:36:32.557Z,56.91
2018-05-06T05:38:59.962Z,55.94
2018-05-06T05:41:27.377Z,56.01
2018-05-06T05:43:54.785Z,55.97
2018-05-06T05:46:22.192Z,55.54
2018-05-06T05:48:49.595Z,55.35
2018-05-06T05:51:17.012Z,54.84
2018-05-06T05:53:44.417Z,54.42
2018-05-06T05:56:11.832Z,53.56
2018-05-06T05:58:39.236Z,53.78
2018-05-06T06:01:06.654Z,53.39
2018-05-06T06:03:34.063Z,53.24
2018-05-06T06:06:01.471Z,52.57
2018-05-06T06:08:28.880Z,51.15
2018-05-06T06:10:56.292Z,51.13
2018-05-06T06:13:23.688Z,51.29
2018-05-06T06:15:51.101Z,49.82
2018-05-06T06:18:18.511Z,50.19
2018-05-06T06:20:45.923Z,49.53
2018-05-06T06:23:13.320Z,48.74
2018-05-06T06:25:40.768Z,48.88
2018-05-06T06:28:08.201Z,48.74
2018-05-06T06:30:35.613Z,48.43
2018-05-06T06:33:03.086Z,47.97
2018-05-06T06:35:30.438Z,47.47
2018-05-06T06:37:57.848Z,46.58
2018-05-06T06:40:25.255Z,46.67
2018-05-06T06:42:52.668Z,46.44
2018-05-06T06:45:20.075Z,45.37
2018-05-06T06:47:47.484Z,44.92
2018-05-06T06:50:14.900Z,44.88
2018-05-06T06:52:42.308Z,45.21
2018-05-06T06:55:09.721Z,44.61
2018-05-06T06:57:37.199Z,44.00
2018-05-06T07:00:04.560Z,43.68
2018-05-06T07:02:31.966Z,43.37
2018-05-06T07:04:59.367Z,43.19
2018-05-06T07:07:26.785Z,42.36
2018-05-06T07:09:54.189Z,42.04
2018-05-06T07:12:21.601Z,42.02
2018-05-06T07:14:49.020Z,42.29
2018-05-06T07:17:16.441Z,41.49
2018-05-06T07:19:43.844Z,40.04
2018-05-06T07:22:11.273Z,40.08
2018-05-06T07:24:38.669Z,39.33
2018-05-06T07:27:06.101Z,39.51
2018-05-06T07:29:33.512Z,39.75
2018-05-06T07:32:00.920Z,39.55
2018-05-06T07:34:28.323Z,38.88
2018-05-06T07:36:55.745Z,38.18
2018-05-06T07:39:23.149Z,38.50
2018-05-06T07:41:50.555Z,37.64
2018-05-06T07:44:17.976Z,37.32
2018-05-06T07:46:45.375Z,37.24
2018-05-06T07:49:12.784Z,37.18
2018-05-06T07:51:40.200Z,37.10
2018-05-06T07:54:07.606Z,36.07
2018-05-06T07:56:35.024Z,35.85
2018-05-06T07:59:02.435Z,36.02
2018-05-06T08:01:29.861Z,35.44
2018-05-06T08:03:57.278Z,35.04
2018-05-06T08:06:24.692Z,34.95
2018-05-06T08:08:52.115Z,34.35
2018-05-06T08:11:19.540Z,32.62
2018-05-06T08:13:46.951Z,33.85
2018-05-06T08:16:14.406Z,33.08
2018-05-06T08:18:41.787Z,32.89
2018-05-06T08:21:09.208Z,32.91
2018-05-06T08:23:36.615Z,32.30
2018-05-06T08:26:04.051Z,32.30
2018-05-06T08:28:31.462Z,32.89
2018-05-06T08:30:58.884Z,32.33
2018-05-06T08:33:26.300Z,31.83
2018-05-06T08:35:53.725Z,31.56
2018-05-06T08:38:21.172Z,30.90
2018-05-06T08:40:48.584Z,30.77
2018-05-06T08:43:16.001Z,30.89
2018-05-06T08:45:43.494Z,30.98
2018-05-06T08:48:10.841Z,30.31
2018-05-06T08:50:38.256Z,30.55
2018-05-06T08:53:05.680Z,30.31
2018-05-06T08:55:33.096Z,29.91
2018-05-06T08:58:00.508Z,29.33
2018-05-06T09:00:27.928Z,29.41
2018-05-06T09:02:55.349Z,28.86
2018-05-06T09:05:22.769Z,29.03
2018-05-06T09:07:50.181Z,28.84
2018-05-06T09:10:17.596Z,28.30
2018-05-06T09:12:45.021Z,27.83
2018-05-06T09:15:12.433Z,27.87
2018-05-06T09:17:39.860Z,28.18
2018-05-06T09:20:07.277Z,28.00
2018-05-06T09:22:34.701Z,27.52
2018-05-06T09:25:02.120Z,27.01
2018-05-06T09:27:29.536Z,26.58
2018-05-06T09:29:56.952Z,26.75
2018-05-06T09:32:24.459Z,25.44
2018-05-06T09:34:51.792Z,25.35
2018-05-06T09:37:19.240Z,25.95
2018-05-06T09:39:46.655Z,25.87
2018-05-06T09:42:14.067Z,25.38
2018-05-06T09:44:41.484Z,24.96
2018-05-06T09:47:08.906Z,25.02
2018-05-06T09:49:36.317Z,24.64
2018-05-06T09:52:03.744Z,24.44
2018-05-06T09:54:31.156Z,24.54
2018-05-06T09:56:58.584Z,24.20
2018-05-06T09:59:26.133Z,24.32
2018-05-06T10:01:53.551Z,23.72
2018-05-06T10:04:20.968Z,23.60
2018-05-06T10:06:48.417Z,23.27
2018-05-06T10:09:15.832Z,23.23
2018-05-06T10:11:43.256Z,22.98
2018-05-06T10:14:10.706Z,22.93
2018-05-06T10:16:38.124Z,22.77
2018-05-06T10:19:05.545Z,22.22
2018-05-06T10:21:32.956Z,22.64
2018-05-06T10:24:00.380Z,22.68
2018-05-06T10:26:27.811Z,21.92
2018-05-06T10:28:55.307Z,21.95
2018-05-06T10:31:22.737Z,21.68
2018-05-06T10:33:50.173Z,21.38
2018-05-06T10:36:17.605Z,21.99
2018-05-06T10:38:45.025Z,21.58
2018-05-06T10:41:12.480Z,21.47
2018-05-06T10:43:39.903Z,21.49
2018-05-06T10:46:07.317Z,21.26
2018-05-06T10:48:34.773Z,21.56
2018-05-06T10:51:02.188Z,21.23
2018-05-06T10:53:29.619Z,21.16
2018-05-06T10:55:57.042Z,20.96
2018-05-06T10:58:24.464Z,21.19
2018-05-06T11:00:51.890Z,21.05
2018-05-06T11:03:19.327Z,21.11
2018-05-06T11:05:46.765Z,20.83
2018-05-06T11:08:14.240Z,21.02
2018-05-06T11:10:41.656Z,20.77
2018-05-06T11:13:09.149Z,20.99
2018-05-06T11:15:36.589Z,20.91
2018-05-06T11:18:04.018Z,20.89
2018-05-06T11:20:32.630Z,20.65
2018-05-06T11:23:00.064Z,20.58
2018-05-06T11:25:27.472Z,20.82
2018-05-06T11:27:54.901Z,20.83
2018-05-06T11:30:22.312Z,20.86
2018-05-06T11:32:49.736Z,20.70
2018-05-06T11:35:17.188Z,21.03
2018-05-06T11:37:44.620Z,20.72
2018-05-06T11:40:12.045Z,20.82
2018-05-06T11:42:39.480Z,20.65
2018-05-06T11:45:06.896Z,20.69
2018-05-06T11:47:34.317Z,20.71
2018-05-06T11:50:01.737Z,20.67
2018-05-06T11:52:29.144Z,20.49
2018-05-06T11:54:56.569Z,20.38
2018-05-06T11:57:23.988Z,20.82
2018-05-06T11:59:51.420Z,20.64
2018-05-06T12:02:18.870Z,20.74
2018-05-06T12:04:46.260Z,20.50
2018-05-06T12:07:13.667Z,20.38
2018-05-06T12:09:41.087Z,21.00
2018-05-06T12:12:08.504Z,20.90
2018-05-06T12:14:35.931Z,20.77
2018-05-06T12:17:03.359Z,21.03
2018-05-06T12:19:30.792Z,20.94
2018-05-06T12:21:58.273Z,21.05
2018-05-06T12:24:25.632Z,20.78
2018-05-06T12:26:53.043Z,20.98
2018-05-06T12:29:20.510Z,21.06
2018-05-06T12:31:47.924Z,21.28
2018-05-06T12:34:15.349Z,21.18
2018-05-06T12:36:42.760Z,20.92
2018-05-06T12:39:10.189Z,20.76
2018-05-06T12:41:37.603Z,21.05
2018-05-06T12:44:05.035Z,20.94
2018-05-06T12:46:32.453Z,20.87
2018-05-06T12:48:59.880Z,20.91
2018-05-06T12:51:27.296Z,21.01
2018-05-06T12:53:54.720Z,21.07
2018-05-06T12:56:22.159Z,21.14
2018-05-06T12:58:49.584Z,21.27
2018-05-06T13:01:17.004Z,21.31
2018-05-06T13:03:44.441Z,20.94
2018-05-06T13:06:11.848Z,20.94
2018-05-06T13:08:39.267Z,20.77
2018-05-06T13:11:06.700Z,20.76
2018-05-06T13:13:34.127Z,21.01
2018-05-06T13:16:01.540Z,20.75
2018-05-06T13:18:28.960Z,20.98
2018-05-06T13:20:56.381Z,21.22
2018-05-06T13:23:23.804Z,21.23
2018-05-06T13:25:51.221Z,21.08
2018-05-06T13:28:18.656Z,21.34
2018-05-06T13:30:46.076Z,21.19
2018-05-06T13:33:13.488Z,21.28
2018-05-06T13:35:40.931Z,21.50
2018-05-06T13:38:08.344Z,21.47
2018-05-06T13:40:35.765Z,21.54
2018-05-06T13:43:03.184Z,21.39
2018-05-06T13:45:30.607Z,21.37
2018-05-06T13:47:58.016Z,21.46
2018-05-06T13:50:25.440Z,21.56
2018-05-06T13:52:52.849Z,21.43
2018-05-06T13:55:20.273Z,21.30
2018-05-06T13:57:47.682Z,21.36
2018-05-06T14:00:15.108Z,21.36
2018-05-06T14:02:42.612Z,21.42
2018-05-06T14:05:09.956Z,21.62
2018-05-06T14:07:37.378Z,21.70
2018-05-06T14:10:04.804Z,21.59
2018-05-06T14:12:32.257Z,21.55
2018-05-06T14:14:59.676Z,21.77
2018-05-06T14:17:27.092Z,22.15
2018-05-06T14:19:54.518Z,22.08
2018-05-06T14:22:21.932Z,22.17
2018-05-06T14:24:49.360Z,22.08
2018-05-06T14:27:16.776Z,22.18
2018-05-06T14:29:44.200Z,22.07
2018-05-06T14:32:11.604Z,21.67
2018-05-06T14:34:39.033Z,21.77
2018-05-06T14:37:06.445Z,22.25
2018-05-06T14:39:33.892Z,22.05
2018-05-06T14:42:01.288Z,22.03
2018-05-06T14:44:28.708Z,22.13
2018-05-06T14:47:07.904Z,22.36
2018-05-06T14:49:35.338Z,22.22
2018-05-06T14:52:02.764Z,22.23
2018-05-06T14:54:30.200Z,22.25
2018-05-06T14:56:57.625Z,22.58
2018-05-06T14:59:25.036Z,22.41
2018-05-06T15:01:52.461Z,22.58
2018-05-06T15:04:19.872Z,22.63
2018-05-06T15:06:47.297Z,22.67
2018-05-06T15:09:14.713Z,22.83
2018-05-06T15:11:42.168Z,22.82
2018-05-06T15:14:09.575Z,23.15
2018-05-06T15:16:37.004Z,23.54
2018-05-06T15:19:04.417Z,23.37
2018-05-06T15:21:31.840Z,23.71
2018-05-06T15:23:59.252Z,23.99
2018-05-06T15:26:26.677Z,24.03
2018-05-06T15:28:54.097Z,23.60
2018-05-06T15:31:21.517Z,23.74
2018-05-06T15:33:48.924Z,23.79
2018-05-06T15:36:16.357Z,23.90
2018-05-06T15:38:43.765Z,24.08
2018-05-06T15:41:11.284Z,24.16
2018-05-06T15:43:38.608Z,24.08
2018-05-06T15:46:06.027Z,24.33
2018-05-06T15:48:33.440Z,24.08
2018-05-06T15:51:00.881Z,24.30
2018-05-06T15:53:28.296Z,24.44
2018-05-06T15:55:55.719Z,24.78
2018-05-06T15:58:23.132Z,24.75
2018-05-06T16:00:50.544Z,25.15
2018-05-06T16:03:29.765Z,25.49
2018-05-06T16:05:57.233Z,25.31
2018-05-06T16:08:24.643Z,25.50
2018-05-06T16:10:52.056Z,25.56
2018-05-06T16:13:19.500Z,25.94
2018-05-06T16:15:46.922Z,25.68
2018-05-06T16:18:14.335Z,25.71
2018-05-06T16:20:41.781Z,25.68
2018-05-06T16:23:09.218Z,26.18
2018-05-06T16:25:36.626Z,26.12
2018-05-06T16:28:04.044Z,26.21
2018-05-06T16:30:31.470Z,26.32
2018-05-06T16:32:58.887Z,26.04
2018-05-06T16:35:26.312Z,26.13
2018-05-06T16:37:53.752Z,26.05
2018-05-06T16:40:21.163Z,26.21
2018-05-06T16:42:48.610Z,26.20
2018-05-06T16:45:16.023Z,26.32
2018-05-06T16:47:43.435Z,26.18
2018-05-06T16:50:10.860Z,26.33
2018-05-06T16:52:38.290Z,26.45
2018-05-06T16:55:05.700Z,26.59
2018-05-06T16:57:33.118Z,26.99
2018-05-06T17:00:00.536Z,27.00
2018-05-06T17:02:27.994Z,26.87
2018-05-06T17:04:55.412Z,26.88
2018-05-06T17:07:22.834Z,26.92
2018-05-06T17:09:50.300Z,27.10
2018-05-06T17:12:17.730Z,27.16
2018-05-06T17:14:45.141Z,27.38
2018-05-06T17:17:12.557Z,27.30
2018-05-06T17:19:39.984Z,27.52
2018-05-06T17:22:07.424Z,27.41
2018-05-06T17:24:34.833Z,27.55
2018-05-06T17:27:02.256Z,27.62
2018-05-06T17:29:29.697Z,27.74
2018-05-06T17:31:57.158Z,27.76
2018-05-06T17:34:24.606Z,27.95
2018-05-06T17:36:52.011Z,28.04
2018-05-06T17:39:19.443Z,28.08
2018-05-06T17:41:46.865Z,28.23
2018-05-06T17:44:14.272Z,28.40
2018-05-06T17:46:41.688Z,28.41
2018-05-06T17:49:09.104Z,28.36
2018-05-06T17:51:36.528Z,28.49
2018-05-06T17:54:03.942Z,28.52
2018-05-06T17:56:31.381Z,28.63
2018-05-06T17:58:58.792Z,28.75
2018-05-06T18:01:26.217Z,28.94
2018-05-06T18:03:53.645Z,28.87
2018-05-06T18:06:21.061Z,28.90
2018-05-06T18:08:48.490Z,28.84
2018-05-06T18:11:15.911Z,29.06
2018-05-06T18:13:43.319Z,28.91
2018-05-06T18:16:10.773Z,29.01
2018-05-06T18:18:38.185Z,28.90
2018-05-06T18:21:05.608Z,29.00
2018-05-06T18:23:33.019Z,29.26
2018-05-06T18:26:00.441Z,29.68
2018-05-06T18:28:27.852Z,29.58
2018-05-06T18:30:55.279Z,29.79
2018-05-06T18:33:22.688Z,29.90
2018-05-06T18:35:50.116Z,30.00
2018-05-06T18:38:17.529Z,30.12
2018-05-06T18:40:44.940Z,30.33
2018-05-06T18:43:12.360Z,30.48
2018-05-06T18:45:39.781Z,30.67
2018-05-06T18:48:07.211Z,31.00
2018-05-06T18:50:34.631Z,31.75
2018-05-06T18:53:02.055Z,33.08
2018-05-06T18:55:29.465Z,32.94
2018-05-06T18:57:56.909Z,33.47
2018-05-06T19:00:24.325Z,33.70
2018-05-06T19:02:51.748Z,34.17
2018-05-06T19:05:19.162Z,34.34
2018-05-06T19:07:46.580Z,34.81
2018-05-06T19:10:13.997Z,34.69
2018-05-06T19:12:41.416Z,35.17
2018-05-06T19:15:08.828Z,35.18
2018-05-06T19:17:36.311Z,35.43
2018-05-06T19:20:03.680Z,35.55
2018-05-06T19:22:31.108Z,35.88
2018-05-06T19:24:58.524Z,36.02
2018-05-06T19:27:25.948Z,36.51
2018-05-06T19:29:53.380Z,36.27
2018-05-06T19:32:20.809Z,36.45
2018-05-06T19:34:48.229Z,36.64
2018-05-06T19:37:15.650Z,36.80
2018-05-06T19:39:43.141Z,37.04
2018-05-06T19:42:10.480Z,37.35
2018-05-06T19:44:37.901Z,37.55
2018-05-06T19:47:05.323Z,37.81
2018-05-06T19:49:32.740Z,37.94
2018-05-06T19:52:00.160Z,38.05
2018-05-06T19:54:27.596Z,38.30
2018-05-06T19:56:55.002Z,38.36
2018-05-06T19:59:22.424Z,38.64
2018-05-06T20:01:49.838Z,38.84
2018-05-06T20:04:17.252Z,39.05
2018-05-06T20:06:44.668Z,39.47
2018-05-06T20:09:12.105Z,39.77
2018-05-06T20:11:39.511Z,39.95
2018-05-06T20:14:06.932Z,40.11
2018-05-06T20:16:34.348Z,40.62
2018-05-06T20:19:01.770Z,40.84
2018-05-06T20:21:29.273Z,40.95
2018-05-06T20:23:56.602Z,41.38
2018-05-06T20:26:24.022Z,41.45
2018-05-06T20:28:51.432Z,41.82
2018-05-06T20:31:18.861Z,42.17
2018-05-06T20:33:46.269Z,42.32
2018-05-06T20:36:13.697Z,42.41
2018-05-06T20:38:41.123Z,42.66
2018-05-06T20:41:08.539Z,42.76
2018-05-06T20:43:35.957Z,42.95
2018-05-06T20:46:03.384Z,43.42
2018-05-06T20:48:30.802Z,43.75
2018-05-06T20:50:58.213Z,44.17
2018-05-06T20:53:25.623Z,44.38
2018-05-06T20:55:53.045Z,44.62
2018-05-06T20:58:20.508Z,45.32
2018-05-06T21:00:47.919Z,45.41
2018-05-06T21:03:15.332Z,45.83
2018-05-06T21:05:42.769Z,45.94
2018-05-06T21:08:10.176Z,46.14
2018-05-06T21:10:37.609Z,46.56
2018-05-06T21:13:05.029Z,46.62
2018-05-06T21:15:32.440Z,47.21
2018-05-06T21:17:59.859Z,47.25
2018-05-06T21:20:27.268Z,47.49
2018-05-06T21:22:54.695Z,48.00
2018-05-06T21:25:22.135Z,47.82
2018-05-06T21:27:49.553Z,48.13
2018-05-06T21:30:16.972Z,48.52
2018-05-06T21:32:44.385Z,48.64
2018-05-06T21:35:11.799Z,48.81
2018-05-06T21:37:39.296Z,48.96
2018-05-06T21:40:06.663Z,49.12
2018-05-06T21:42:34.076Z,49.60
2018-05-06T21:45:01.519Z,49.44
2018-05-06T21:47:28.891Z,49.65
2018-05-06T21:49:56.328Z,49.83
2018-05-06T21:52:23.719Z,49.88
2018-05-06T21:54:51.133Z,50.11
2018-05-06T21:57:18.547Z,50.10
2018-05-06T21:59:45.943Z,50.18
2018-05-06T22:02:13.376Z,50.80
2018-05-06T22:04:40.791Z,50.85
2018-05-06T22:07:08.200Z,50.84
2018-05-06T22:09:35.615Z,50.98
2018-05-06T22:12:03.015Z,51.13
2018-05-06T22:14:30.432Z,51.20
2018-05-06T22:16:57.843Z,51.46
2018-05-06T22:19:25.288Z,51.52
2018-05-06T22:21:52.673Z,51.57
2018-05-06T22:24:20.089Z,51.78
2018-05-06T22:26:47.495Z,51.99
2018-05-06T22:29:14.915Z,52.03
2018-05-06T22:31:42.322Z,52.28
2018-05-06T22:34:09.762Z,52.54
2018-05-06T22:36:37.136Z,52.59
2018-05-06T22:39:04.556Z,52.72
2018-05-06T22:41:32.027Z,52.92
2018-05-06T22:43:59.425Z,52.87
2018-05-06T22:46:26.826Z,52.97
2018-05-06T22:48:54.236Z,53.22
2018-05-06T22:51:21.660Z,53.25
2018-05-06T22:53:49.064Z,53.30
2018-05-06T22:56:16.477Z,53.19
2018-05-06T22:58:43.901Z,53.42
2018-05-06T23:01:11.296Z,53.71
2018-05-06T23:03:38.716Z,53.76
2018-05-06T23:06:06.120Z,53.86
2018-05-06T23:08:33.544Z,54.04
2018-05-06T23:11:00.947Z,54.18
2018-05-06T23:13:28.358Z,54.32
2018-05-06T23:15:55.777Z,54.46
2018-05-06T23:18:23.187Z,54.46
2018-05-06T23:20:50.626Z,54.72
2018-05-06T23:23:18.004Z,54.71
2018-05-06T23:25:45.428Z,54.90
2018-05-06T23:28:12.836Z,55.04
2018-05-06T23:30:40.267Z,55.08
2018-05-06T23:33:07.675Z,55.33
2018-05-06T23:35:35.127Z,55.36
2018-05-06T23:38:02.504Z,55.68
2018-05-06T23:40:29.912Z,55.81
2018-05-06T23:42:57.321Z,55.91
2018-05-06T23:45:24.739Z,55.95
2018-05-06T23:47:52.148Z,55.99
2018-05-06T23:50:19.564Z,55.94
2018-05-06T23:52:46.964Z,55.87
2018-05-06T23:55:14.438Z,56.07
2018-05-06T23:57:41.817Z,56.30
